createdAt,value
2022-08-07T00:00:41.676Z,15.59
2022-08-07T00:03:09.406Z,15.56
2022-08-07T00:05:37.176Z,15.56
2022-08-07T00:08:04.979Z,15.53
2022-08-07T00:10:34.935Z,15.41
2022-08-07T00:13:17.440Z,15.42
2022-08-07T00:15:52.296Z,15.45
2022-08-07T00:18:24.933Z,15.50
2022-08-07T00:20:57.730Z,15.50
2022-08-07T00:23:30.065Z,15.46
2022-08-07T00:26:01.633Z,15.50
2022-08-07T00:28:34.526Z,15.45
2022-08-07T00:31:16.550Z,15.35
2022-08-07T00:33:47.732Z,15.39
2022-08-07T00:36:15.383Z,15.39
2022-08-07T00:38:44.239Z,15.22
2022-08-07T00:41:14.615Z,15.26
2022-08-07T00:43:59.388Z,15.23
2022-08-07T00:46:30.352Z,15.30
2022-08-07T00:49:02.713Z,15.31
2022-08-07T00:51:57.695Z,15.31
2022-08-07T00:54:19.596Z,15.36
2022-08-07T00:56:49.757Z,15.25
2022-08-07T00:59:20.145Z,15.28
2022-08-07T01:01:48.530Z,15.19
2022-08-07T01:04:24.806Z,15.20
2022-08-07T01:06:52.316Z,15.15
2022-08-07T01:10:04.157Z,15.08
2022-08-07T01:12:28.250Z,15.08
2022-08-07T01:15:01.019Z,14.99
2022-08-07T01:17:29.834Z,14.82
2022-08-07T01:20:01.462Z,14.76
2022-08-07T01:22:29.752Z,14.78
2022-08-07T01:24:58.095Z,14.79
2022-08-07T01:27:25.495Z,14.82
2022-08-07T01:30:01.242Z,14.80
2022-08-07T01:32:29.750Z,14.82
2022-08-07T01:34:58.896Z,14.83
2022-08-07T01:37:26.935Z,14.86
2022-08-07T01:40:02.079Z,14.89
2022-08-07T01:42:39.377Z,14.81
2022-08-07T01:45:18.416Z,14.85
2022-08-07T01:48:20.223Z,14.60
2022-08-07T01:50:43.055Z,14.57
2022-08-07T01:53:20.883Z,14.56
2022-08-07T01:55:58.460Z,14.58
2022-08-07T01:58:33.037Z,14.50
2022-08-07T02:01:09.975Z,14.38
2022-08-07T02:03:53.867Z,14.43
2022-08-07T02:06:31.867Z,14.38
2022-08-07T02:09:04.506Z,14.34
2022-08-07T02:12:02.830Z,14.36
2022-08-07T02:14:35.626Z,14.23
2022-08-07T02:17:04.010Z,14.16
2022-08-07T02:20:04.452Z,14.07
2022-08-07T02:22:25.764Z,14.14
2022-08-07T02:24:55.409Z,14.13
2022-08-07T02:27:23.902Z,14.19
2022-08-07T02:29:54.489Z,14.24
2022-08-07T02:32:26.963Z,14.27
2022-08-07T02:34:58.007Z,14.20
2022-08-07T02:37:28.244Z,14.18
2022-08-07T02:40:31.222Z,14.21
2022-08-07T02:42:51.475Z,14.13
2022-08-07T02:45:58.980Z,14.03
2022-08-07T02:48:15.336Z,14.09
2022-08-07T02:50:47.460Z,14.03
2022-08-07T02:53:17.798Z,14.05
2022-08-07T02:56:02.260Z,14.01
2022-08-07T02:58:34.157Z,14.08
2022-08-07T03:01:03.349Z,14.08
2022-08-07T03:03:49.227Z,14.01
2022-08-07T03:06:32.029Z,14.01
2022-08-07T03:09:02.313Z,14.02
2022-08-07T03:11:32.823Z,13.99
2022-08-07T03:14:06.690Z,13.89
2022-08-07T03:16:34.707Z,13.93
2022-08-07T03:19:01.999Z,13.93
2022-08-07T03:21:33.034Z,13.93
2022-08-07T03:24:20.195Z,13.91
2022-08-07T03:26:58.786Z,13.91
2022-08-07T03:29:37.748Z,13.97
2022-08-07T03:32:13.059Z,13.92
2022-08-07T03:34:47.021Z,13.93
2022-08-07T03:37:27.430Z,13.95
2022-08-07T03:39:59.443Z,13.94
2022-08-07T03:42:42.440Z,13.88
2022-08-07T03:45:11.998Z,13.90
2022-08-07T03:47:48.162Z,13.85
2022-08-07T03:50:23.359Z,13.86
2022-08-07T03:52:52.879Z,13.91
2022-08-07T03:55:20.764Z,13.88
2022-08-07T03:58:33.262Z,13.84
2022-08-07T04:00:38.684Z,13.84
2022-08-07T04:03:13.870Z,13.79
2022-08-07T04:05:42.541Z,13.78
2022-08-07T04:08:21.177Z,13.72
2022-08-07T04:10:54.562Z,13.63
2022-08-07T04:14:09.307Z,13.51
2022-08-07T04:16:31.530Z,13.58
2022-08-07T04:19:04.111Z,13.51
2022-08-07T04:21:39.896Z,13.51
2022-08-07T04:24:33.648Z,13.53
2022-08-07T04:27:05.027Z,13.55
2022-08-07T04:29:45.684Z,13.55
2022-08-07T04:32:33.880Z,13.51
2022-08-07T04:35:11.120Z,13.41
2022-08-07T04:37:52.705Z,13.42
2022-08-07T04:40:29.600Z,13.50
2022-08-07T04:43:01.986Z,13.45
2022-08-07T04:45:57.562Z,13.46
2022-08-07T04:48:38.177Z,13.55
2022-08-07T04:51:09.197Z,13.61
2022-08-07T04:54:05.632Z,13.94
2022-08-07T04:58:12.162Z,14.12
2022-08-07T05:00:09.919Z,14.30
2022-08-07T05:02:43.465Z,14.38
2022-08-07T05:05:53.291Z,14.50
2022-08-07T05:08:58.887Z,14.66
2022-08-07T05:11:26.100Z,14.62
2022-08-07T05:14:52.111Z,14.75
2022-08-07T05:17:05.964Z,14.93
2022-08-07T05:19:44.877Z,15.09
2022-08-07T05:22:19.092Z,15.17
2022-08-07T05:24:57.290Z,15.34
2022-08-07T05:28:03.068Z,15.60
2022-08-07T05:30:16.739Z,15.88
2022-08-07T05:32:59.586Z,16.02
2022-08-07T05:35:33.203Z,16.01
2022-08-07T05:38:09.116Z,16.08
2022-08-07T05:40:50.700Z,16.33
2022-08-07T05:43:19.581Z,16.44
2022-08-07T05:46:07.005Z,16.43
2022-08-07T05:48:34.452Z,16.44
2022-08-07T05:51:03.889Z,16.63
2022-08-07T05:54:12.183Z,16.82
2022-08-07T05:56:29.906Z,16.95
2022-08-07T05:58:59.884Z,17.13
2022-08-07T06:01:35.719Z,17.17
2022-08-07T06:04:05.058Z,17.45
2022-08-07T06:06:38.309Z,17.46
2022-08-07T06:09:15.232Z,17.58
2022-08-07T06:11:45.747Z,17.92
2022-08-07T06:14:20.974Z,18.12
2022-08-07T06:16:56.423Z,18.21
2022-08-07T06:19:47.861Z,18.00
2022-08-07T06:22:23.288Z,17.73
2022-08-07T06:25:01.240Z,17.96
2022-08-07T06:28:00.636Z,17.98
2022-08-07T06:30:35.191Z,18.21
2022-08-07T06:33:15.762Z,18.44
2022-08-07T06:36:06.264Z,18.63
2022-08-07T06:38:35.106Z,18.61
2022-08-07T06:41:06.964Z,18.88
2022-08-07T06:43:39.481Z,18.84
2022-08-07T06:46:14.517Z,18.62
2022-08-07T06:48:44.659Z,18.90
2022-08-07T06:51:31.273Z,19.07
2022-08-07T06:55:29.206Z,19.12
2022-08-07T06:56:53.729Z,19.29
2022-08-07T07:00:12.289Z,19.33
2022-08-07T07:02:48.777Z,19.22
2022-08-07T07:05:07.922Z,19.05
2022-08-07T07:07:59.797Z,19.13
2022-08-07T07:10:33.468Z,19.21
2022-08-07T07:13:14.495Z,19.42
2022-08-07T07:15:44.458Z,19.58
2022-08-07T07:18:46.874Z,19.56
2022-08-07T07:21:40.532Z,19.94
2022-08-07T07:24:17.532Z,20.14
2022-08-07T07:26:49.602Z,20.35
2022-08-07T07:29:40.354Z,20.52
2022-08-07T07:32:09.530Z,20.79
2022-08-07T07:34:39.628Z,20.49
2022-08-07T07:37:22.181Z,20.77
2022-08-07T07:39:57.744Z,20.44
2022-08-07T07:42:32.829Z,20.12
2022-08-07T07:45:02.052Z,19.92
2022-08-07T07:47:30.287Z,19.64
2022-08-07T07:50:33.945Z,20.21
2022-08-07T07:53:06.059Z,20.33
2022-08-07T07:55:57.707Z,20.77
2022-08-07T07:58:30.037Z,20.88
2022-08-07T08:00:57.982Z,20.85
2022-08-07T08:04:09.773Z,21.04
2022-08-07T08:06:14.213Z,20.71
2022-08-07T08:08:43.026Z,21.16
2022-08-07T08:11:16.317Z,21.27
2022-08-07T08:13:58.729Z,21.29
2022-08-07T08:16:50.466Z,21.66
2022-08-07T08:20:16.092Z,22.02
2022-08-07T08:22:32.562Z,21.65
2022-08-07T08:25:27.002Z,21.77
2022-08-07T08:28:11.443Z,21.87
2022-08-07T08:30:51.541Z,21.94
2022-08-07T08:33:24.646Z,22.32
2022-08-07T08:35:57.437Z,22.03
2022-08-07T08:38:35.425Z,22.12
2022-08-07T08:41:11.987Z,21.86
2022-08-07T08:43:55.894Z,22.17
2022-08-07T08:46:34.185Z,21.86
2022-08-07T08:49:10.416Z,22.24
2022-08-07T08:52:12.487Z,22.11
2022-08-07T08:54:47.504Z,21.99
2022-08-07T08:57:25.850Z,22.07
2022-08-07T09:00:04.341Z,22.51
2022-08-07T09:02:41.903Z,22.27
2022-08-07T09:05:37.471Z,22.63
2022-08-07T09:08:05.529Z,23.13
2022-08-07T09:10:37.699Z,23.24
2022-08-07T09:13:14.638Z,23.13
2022-08-07T09:16:24.457Z,23.04
2022-08-07T09:18:58.746Z,23.42
2022-08-07T09:21:58.141Z,23.69
2022-08-07T09:24:54.980Z,23.79
2022-08-07T09:27:28.777Z,23.59
2022-08-07T09:30:08.473Z,23.53
2022-08-07T09:32:54.369Z,23.62
2022-08-07T09:36:04.272Z,24.18
2022-08-07T09:38:39.212Z,24.44
2022-08-07T09:41:14.061Z,23.95
2022-08-07T09:44:05.585Z,24.01
2022-08-07T09:47:50.933Z,24.15
2022-08-07T09:50:00.531Z,23.84
2022-08-07T09:52:51.836Z,24.09
2022-08-07T09:55:29.335Z,23.80
2022-08-07T09:58:32.491Z,23.88
2022-08-07T10:01:52.123Z,24.00
2022-08-07T10:04:28.243Z,23.44
2022-08-07T10:07:25.939Z,23.51
2022-08-07T10:10:03.003Z,23.62
2022-08-07T10:12:33.894Z,23.95
2022-08-07T10:15:26.264Z,23.80
2022-08-07T10:18:08.435Z,23.66
2022-08-07T10:20:54.655Z,24.03
2022-08-07T10:24:05.192Z,23.55
2022-08-07T10:26:34.172Z,23.59
2022-08-07T10:29:10.343Z,23.81
2022-08-07T10:31:49.632Z,23.62
2022-08-07T10:34:27.377Z,23.73
2022-08-07T10:37:12.306Z,23.79
2022-08-07T10:40:05.533Z,23.85
2022-08-07T10:42:38.583Z,23.83
2022-08-07T10:45:57.624Z,24.15
2022-08-07T10:48:11.893Z,24.30
2022-08-07T10:51:01.720Z,24.30
2022-08-07T10:53:44.450Z,24.29
2022-08-07T10:56:30.119Z,24.46
2022-08-07T10:59:21.119Z,24.30
2022-08-07T11:02:05.287Z,24.37
2022-08-07T11:04:50.417Z,24.54
2022-08-07T11:07:58.982Z,24.44
2022-08-07T11:10:38.870Z,24.37
2022-08-07T11:13:16.770Z,24.36
2022-08-07T11:16:10.000Z,24.31
2022-08-07T11:18:42.370Z,24.31
2022-08-07T11:21:32.089Z,23.23
2022-08-07T11:24:04.060Z,23.27
2022-08-07T11:26:49.890Z,22.74
2022-08-07T11:29:41.750Z,22.97
2022-08-07T11:32:15.126Z,22.66
2022-08-07T11:35:01.224Z,22.69
2022-08-07T11:38:09.970Z,23.23
2022-08-07T11:40:40.912Z,23.07
2022-08-07T11:43:41.213Z,22.93
2022-08-07T11:46:17.516Z,23.06
2022-08-07T11:49:50.606Z,23.40
2022-08-07T11:51:51.219Z,23.25
2022-08-07T11:54:30.378Z,23.37
2022-08-07T11:57:03.206Z,23.67
2022-08-07T12:00:10.683Z,23.40
2022-08-07T12:02:31.697Z,23.18
2022-08-07T12:04:58.768Z,23.15
2022-08-07T12:07:39.036Z,23.45
2022-08-07T12:10:15.485Z,24.03
2022-08-07T12:12:46.457Z,23.59
2022-08-07T12:15:17.232Z,23.53
2022-08-07T12:18:29.916Z,23.80
2022-08-07T12:21:01.963Z,23.61
2022-08-07T12:24:05.860Z,23.49
2022-08-07T12:26:50.454Z,23.59
2022-08-07T12:29:37.116Z,23.81
2022-08-07T12:32:12.126Z,23.35
2022-08-07T12:34:40.608Z,23.55
2022-08-07T12:37:16.546Z,23.29
2022-08-07T12:39:50.865Z,23.43
2022-08-07T12:42:27.737Z,23.00
2022-08-07T12:44:57.937Z,23.59
2022-08-07T12:47:30.687Z,23.39
2022-08-07T12:50:05.157Z,23.74
2022-08-07T12:52:52.381Z,23.98
2022-08-07T12:55:41.434Z,24.00
2022-08-07T12:58:28.201Z,24.03
2022-08-07T13:01:05.786Z,24.12
2022-08-07T13:04:02.597Z,24.44
2022-08-07T13:07:00.604Z,24.58
2022-08-07T13:10:20.542Z,24.10
2022-08-07T13:12:44.477Z,24.01
2022-08-07T13:15:34.584Z,24.04
2022-08-07T13:18:26.762Z,24.21
2022-08-07T13:21:05.035Z,24.08
2022-08-07T13:24:03.882Z,24.39
2022-08-07T13:26:49.146Z,24.11
2022-08-07T13:29:21.683Z,23.89
2022-08-07T13:32:23.765Z,23.95
2022-08-07T13:34:56.576Z,23.88
2022-08-07T13:37:28.142Z,23.82
2022-08-07T13:40:36.633Z,24.01
2022-08-07T13:43:02.340Z,24.12
2022-08-07T13:46:11.455Z,24.35
2022-08-07T13:48:27.779Z,24.34
2022-08-07T13:51:02.699Z,24.34
2022-08-07T13:54:00.537Z,24.31
2022-08-07T13:56:36.202Z,23.86
2022-08-07T13:59:12.170Z,24.08
2022-08-07T14:01:59.163Z,23.98
2022-08-07T14:04:35.825Z,24.31
2022-08-07T14:07:09.258Z,23.96
2022-08-07T14:10:12.340Z,24.06
2022-08-07T14:12:58.667Z,23.82
2022-08-07T14:15:35.024Z,23.80
2022-08-07T14:18:23.663Z,23.82
2022-08-07T14:20:54.675Z,23.79
2022-08-07T14:23:31.683Z,23.98
2022-08-07T14:26:30.409Z,23.81
2022-08-07T14:29:06.058Z,23.85
2022-08-07T14:31:42.468Z,23.71
2022-08-07T14:34:11.882Z,23.93
2022-08-07T14:36:56.235Z,24.06
2022-08-07T14:40:17.300Z,23.82
2022-08-07T14:42:18.321Z,23.79
2022-08-07T14:44:52.305Z,23.63
2022-08-07T14:47:20.064Z,23.39
2022-08-07T14:52:37.694Z,23.28
